createdAt,value
2019-03-23T00:00:13.126Z,99449.56
2019-03-23T00:02:43.384Z,99453.02
2019-03-23T00:05:12.515Z,99454.53
2019-03-23T00:07:41.330Z,99457.88
2019-03-23T00:10:10.936Z,99457.30
2019-03-23T00:12:39.717Z,99453.46
2019-03-23T00:15:09.080Z,99453.90
2019-03-23T00:17:37.914Z,99455.53
2019-03-23T00:20:06.735Z,99452.00
2019-03-23T00:22:35.834Z,99450.69
2019-03-23T00:25:04.920Z,99457.59
2019-03-23T00:27:33.766Z,99457.72
2019-03-23T00:30:02.555Z,99448.69
2019-03-23T00:32:31.474Z,99446.38
2019-03-23T00:35:00.366Z,99450.84
2019-03-23T00:37:29.401Z,99448.48
2019-03-23T00:39:58.217Z,99443.86
2019-03-23T00:42:27.332Z,99443.80
2019-03-23T00:44:56.599Z,99447.41
2019-03-23T00:47:25.424Z,99444.78
2019-03-23T00:49:54.340Z,99445.42
2019-03-23T00:52:23.273Z,99439.80
2019-03-23T00:54:52.078Z,99438.67
2019-03-23T00:57:20.961Z,99442.20
2019-03-23T00:59:49.710Z,99441.59
2019-03-23T01:02:18.977Z,99444.06
2019-03-23T01:04:47.803Z,99447.41
2019-03-23T01:07:16.925Z,99447.05
2019-03-23T01:09:45.777Z,99444.47
2019-03-23T01:12:14.565Z,99438.13
2019-03-23T01:14:43.511Z,99439.53
2019-03-23T01:17:12.356Z,99437.25
2019-03-23T01:19:41.256Z,99435.54
2019-03-23T01:22:11.155Z,99441.84
2019-03-23T01:24:40.306Z,99445.94
2019-03-23T01:27:14.720Z,99434.29
2019-03-23T01:29:44.325Z,99435.19
2019-03-23T01:32:13.481Z,99435.80
2019-03-23T01:34:42.296Z,99433.81
2019-03-23T01:37:11.146Z,99433.98
2019-03-23T01:39:39.893Z,99431.29
2019-03-23T01:42:08.832Z,99435.26
2019-03-23T01:44:38.373Z,99435.22
2019-03-23T01:47:07.259Z,99434.53
2019-03-23T01:49:36.056Z,99438.17
2019-03-23T01:52:04.770Z,99434.70
2019-03-23T01:54:34.017Z,99439.05
2019-03-23T01:57:02.790Z,99437.37
2019-03-23T01:59:31.960Z,99433.94
2019-03-23T02:02:01.336Z,99436.41
2019-03-23T02:04:30.441Z,99436.08
2019-03-23T02:06:59.504Z,99432.19
2019-03-23T02:09:28.702Z,99439.84
2019-03-23T02:11:57.553Z,99440.28
2019-03-23T02:14:26.629Z,99441.56
2019-03-23T02:16:55.481Z,99444.61
2019-03-23T02:19:24.402Z,99443.84
2019-03-23T02:21:53.226Z,99445.53
2019-03-23T02:24:22.067Z,99445.45
2019-03-23T02:26:55.238Z,99448.56
2019-03-23T02:29:24.944Z,99443.61
2019-03-23T02:31:53.829Z,99449.80
2019-03-23T02:34:22.783Z,99456.68
2019-03-23T02:36:51.573Z,99454.86
2019-03-23T02:39:21.124Z,99453.35
2019-03-23T02:41:49.974Z,99451.13
2019-03-23T02:44:19.546Z,99457.02
2019-03-23T02:46:48.426Z,99452.96
2019-03-23T02:49:17.365Z,99454.57
2019-03-23T02:51:46.225Z,99451.83
2019-03-23T02:54:15.062Z,99447.88
2019-03-23T02:56:43.920Z,99447.73
2019-03-23T02:59:13.129Z,99452.73
2019-03-23T03:01:42.264Z,99451.28
2019-03-23T03:04:11.061Z,99451.83
2019-03-23T03:06:39.909Z,99450.88
2019-03-23T03:09:09.047Z,99452.16
2019-03-23T03:11:38.194Z,99446.06
2019-03-23T03:14:07.118Z,99447.34
2019-03-23T03:16:36.023Z,99446.06
2019-03-23T03:19:04.931Z,99440.69
2019-03-23T03:21:34.854Z,99439.45
2019-03-23T03:24:03.746Z,99443.57
2019-03-23T03:26:32.601Z,99444.56
2019-03-23T03:29:01.459Z,99446.79
2019-03-23T03:31:30.427Z,99443.17
2019-03-23T03:33:59.245Z,99446.53
2019-03-23T03:36:30.035Z,99445.48
2019-03-23T03:38:59.092Z,99441.89
2019-03-23T03:41:28.096Z,99438.36
2019-03-23T03:43:56.905Z,99440.37
2019-03-23T03:46:26.113Z,99441.64
2019-03-23T03:48:54.938Z,99435.55
2019-03-23T03:51:24.160Z,99441.70
2019-03-23T03:53:52.980Z,99433.62
2019-03-23T03:56:21.775Z,99438.42
2019-03-23T03:58:51.015Z,99439.06
2019-03-23T04:01:19.915Z,99432.70
2019-03-23T04:03:48.898Z,99435.14
2019-03-23T04:06:17.852Z,99434.16
2019-03-23T04:08:48.027Z,99436.09
2019-03-23T04:11:16.822Z,99428.09
2019-03-23T04:13:45.959Z,99433.81
2019-03-23T04:16:15.088Z,99437.04
2019-03-23T04:18:43.916Z,99434.83
2019-03-23T04:21:12.726Z,99435.27
2019-03-23T04:23:41.856Z,99437.64
2019-03-23T04:26:10.689Z,99441.58
2019-03-23T04:28:39.471Z,99441.61
2019-03-23T04:31:10.453Z,99442.02
2019-03-23T04:33:39.314Z,99443.59
2019-03-23T04:36:08.112Z,99443.75
2019-03-23T04:38:37.198Z,99443.25
2019-03-23T04:41:06.341Z,99445.26
2019-03-23T04:43:35.387Z,99444.08
2019-03-23T04:46:04.245Z,99442.45
2019-03-23T04:48:33.385Z,99443.41
2019-03-23T04:51:02.173Z,99437.86
2019-03-23T04:53:31.369Z,99437.31
2019-03-23T04:56:00.198Z,99438.59
2019-03-23T04:58:30.794Z,99435.95
2019-03-23T05:01:00.988Z,99441.53
2019-03-23T05:03:30.389Z,99440.69
2019-03-23T05:05:59.173Z,99441.91
2019-03-23T05:08:33.189Z,99442.04
2019-03-23T05:10:58.735Z,99442.84
2019-03-23T05:13:28.689Z,99450.33
2019-03-23T05:15:57.477Z,99449.24
2019-03-23T05:18:26.575Z,99445.32
2019-03-23T05:20:55.671Z,99448.82
2019-03-23T05:23:24.812Z,99456.25
2019-03-23T05:25:53.913Z,99456.25
2019-03-23T05:28:23.054Z,99455.88
2019-03-23T05:30:52.413Z,99461.14
2019-03-23T05:33:21.244Z,99463.06
2019-03-23T05:35:50.014Z,99457.43
2019-03-23T05:38:18.813Z,99460.53
2019-03-23T05:40:47.605Z,99458.17
2019-03-23T05:43:16.862Z,99465.56
2019-03-23T05:45:45.686Z,99468.72
2019-03-23T05:48:14.854Z,99469.39
2019-03-23T05:50:43.980Z,99465.30
2019-03-23T05:53:13.099Z,99466.72
2019-03-23T05:55:42.193Z,99468.73
2019-03-23T05:58:11.032Z,99475.73
2019-03-23T06:00:39.817Z,99473.73
2019-03-23T06:03:08.623Z,99474.80
2019-03-23T06:05:37.452Z,99477.79
2019-03-23T06:08:06.485Z,99481.89
2019-03-23T06:10:36.271Z,99481.22
2019-03-23T06:13:05.326Z,99482.39
2019-03-23T06:15:34.114Z,99483.19
2019-03-23T06:18:03.287Z,99480.03
2019-03-23T06:20:32.169Z,99483.52
2019-03-23T06:23:00.967Z,99487.59
2019-03-23T06:25:29.791Z,99487.39
2019-03-23T06:27:58.667Z,99487.58
2019-03-23T06:30:27.544Z,99485.52
2019-03-23T06:32:59.345Z,99488.62
2019-03-23T06:35:28.441Z,99489.03
2019-03-23T06:37:57.239Z,99485.28
2019-03-23T06:40:26.324Z,99484.47
2019-03-23T06:42:59.700Z,99480.20
2019-03-23T06:45:26.514Z,99482.59
2019-03-23T06:47:55.614Z,99475.48
2019-03-23T06:50:24.400Z,99475.48
2019-03-23T06:52:53.187Z,99479.38
2019-03-23T06:55:21.936Z,99477.38
2019-03-23T06:57:50.704Z,99484.04
2019-03-23T07:00:19.477Z,99481.56
2019-03-23T07:02:48.884Z,99481.88
2019-03-23T07:05:17.668Z,99482.28
2019-03-23T07:07:46.845Z,99483.39
2019-03-23T07:10:16.119Z,99480.52
2019-03-23T07:12:44.855Z,99486.61
2019-03-23T07:15:20.055Z,99486.00
2019-03-23T07:17:44.383Z,99489.08
2019-03-23T07:20:13.512Z,99488.05
2019-03-23T07:22:42.865Z,99486.92
2019-03-23T07:25:11.683Z,99490.67
2019-03-23T07:27:40.456Z,99486.01
2019-03-23T07:30:12.266Z,99491.81
2019-03-23T07:32:41.434Z,99491.36
2019-03-23T07:35:10.545Z,99484.75
2019-03-23T07:37:39.743Z,99490.34
2019-03-23T07:40:08.928Z,99494.33
2019-03-23T07:42:37.792Z,99492.94
2019-03-23T07:45:06.769Z,99491.95
2019-03-23T07:47:35.665Z,99488.21
2019-03-23T07:50:05.512Z,99493.73
2019-03-23T07:52:34.595Z,99488.55
2019-03-23T07:55:10.729Z,99495.25
2019-03-23T07:57:40.050Z,99491.47
2019-03-23T08:00:10.592Z,99492.61
2019-03-23T08:02:39.816Z,99489.05
2019-03-23T08:05:08.668Z,99489.81
2019-03-23T08:07:37.574Z,99488.47
2019-03-23T08:10:06.527Z,99491.20
2019-03-23T08:12:35.440Z,99498.08
2019-03-23T08:15:05.277Z,99487.53
2019-03-23T08:17:34.120Z,99490.50
2019-03-23T08:20:03.512Z,99492.30
2019-03-23T08:22:32.693Z,99494.72
2019-03-23T08:25:01.614Z,99494.20
2019-03-23T08:27:30.413Z,99492.91
2019-03-23T08:29:59.369Z,99490.47
2019-03-23T08:32:28.891Z,99488.97
2019-03-23T08:34:58.727Z,99491.25
2019-03-23T08:37:27.889Z,99497.20
2019-03-23T08:39:56.849Z,99502.66
2019-03-23T08:42:26.827Z,99494.86
2019-03-23T08:44:55.571Z,99501.09
2019-03-23T08:47:24.404Z,99495.59
2019-03-23T08:49:53.435Z,99489.48
2019-03-23T08:52:22.329Z,99488.84
2019-03-23T08:54:51.076Z,99491.16
2019-03-23T08:57:19.873Z,99490.33
2019-03-23T08:59:48.987Z,99489.52
2019-03-23T09:02:18.091Z,99488.48
2019-03-23T09:04:47.303Z,99490.41
2019-03-23T09:07:16.473Z,99498.75
2019-03-23T09:09:45.422Z,99499.93
2019-03-23T09:12:14.347Z,99500.24
2019-03-23T09:14:43.300Z,99499.52
2019-03-23T09:17:12.432Z,99498.28
2019-03-23T09:19:41.592Z,99493.83
2019-03-23T09:22:10.409Z,99495.52
2019-03-23T09:24:39.190Z,99489.58
2019-03-23T09:27:08.396Z,99487.58
2019-03-23T09:29:37.517Z,99487.34
2019-03-23T09:32:06.385Z,99488.46
2019-03-23T09:34:35.480Z,99494.06
2019-03-23T09:37:04.467Z,99486.74
2019-03-23T09:39:33.569Z,99483.52
2019-03-23T09:42:02.397Z,99483.47
2019-03-23T09:44:31.256Z,99485.27
2019-03-23T09:47:00.067Z,99482.91
2019-03-23T09:49:31.297Z,99484.34
2019-03-23T09:52:00.169Z,99477.50
2019-03-23T09:54:29.092Z,99474.23
2019-03-23T09:56:59.584Z,99473.92
2019-03-23T09:59:29.329Z,99472.02
2019-03-23T10:01:58.408Z,99470.66
2019-03-23T10:04:27.264Z,99464.27
2019-03-23T10:06:56.031Z,99461.16
2019-03-23T10:09:24.899Z,99457.46
2019-03-23T10:11:53.703Z,99454.13
2019-03-23T10:14:22.806Z,99457.33
2019-03-23T10:16:51.682Z,99452.20
2019-03-23T10:19:20.604Z,99447.67
2019-03-23T10:21:49.424Z,99440.30
2019-03-23T10:24:18.238Z,99444.09
2019-03-23T10:26:47.077Z,99441.08
2019-03-23T10:29:16.169Z,99445.33
2019-03-23T10:31:45.510Z,99442.91
2019-03-23T10:34:14.335Z,99433.75
2019-03-23T10:36:43.189Z,99437.28
2019-03-23T10:39:11.970Z,99438.07
2019-03-23T10:41:40.840Z,99430.98
2019-03-23T10:44:10.118Z,99427.91
2019-03-23T10:46:39.646Z,99424.13
2019-03-23T10:49:09.022Z,99424.63
2019-03-23T10:51:37.938Z,99433.22
2019-03-23T10:54:07.080Z,99430.19
2019-03-23T10:56:36.046Z,99416.81
2019-03-23T10:59:05.211Z,99417.84
2019-03-23T11:01:34.715Z,99425.55
2019-03-23T11:04:03.523Z,99423.34
2019-03-23T11:06:32.450Z,99419.44
2019-03-23T11:09:01.484Z,99420.83
2019-03-23T11:11:32.142Z,99423.96
2019-03-23T11:14:02.214Z,99419.30
2019-03-23T11:16:30.958Z,99425.05
2019-03-23T11:19:00.136Z,99427.86
2019-03-23T11:21:28.954Z,99416.16
2019-03-23T11:23:57.812Z,99419.43
2019-03-23T11:26:28.134Z,99413.37
2019-03-23T11:28:57.512Z,99417.44
2019-03-23T11:31:26.339Z,99421.14
2019-03-23T11:33:56.242Z,99414.48
2019-03-23T11:36:25.196Z,99415.38
2019-03-23T11:38:54.011Z,99418.20
2019-03-23T11:41:23.043Z,99418.80
2019-03-23T11:43:51.934Z,99411.84
2019-03-23T11:46:21.030Z,99415.79
2019-03-23T11:48:50.445Z,99408.41
2019-03-23T11:51:19.644Z,99409.80
2019-03-23T11:53:48.424Z,99401.44
2019-03-23T11:56:17.475Z,99405.69
2019-03-23T11:58:46.554Z,99401.92
2019-03-23T12:01:15.401Z,99410.58
2019-03-23T12:03:44.483Z,99403.89
2019-03-23T12:06:13.334Z,99404.05
2019-03-23T12:08:42.209Z,99397.45
2019-03-23T12:11:11.025Z,99403.17
2019-03-23T12:13:40.061Z,99392.75
2019-03-23T12:16:09.330Z,99394.72
2019-03-23T12:18:38.227Z,99398.77
2019-03-23T12:21:07.085Z,99395.77
2019-03-23T12:23:36.157Z,99395.20
2019-03-23T12:26:05.438Z,99393.11
2019-03-23T12:28:34.808Z,99392.81
2019-03-23T12:31:11.953Z,99392.68
2019-03-23T12:33:47.002Z,99387.98
2019-03-23T12:36:16.013Z,99391.02
2019-03-23T12:38:45.012Z,99391.85
2019-03-23T12:41:22.721Z,99383.07
2019-03-23T12:43:44.959Z,99373.72
2019-03-23T12:46:14.859Z,99380.89
2019-03-23T12:48:43.962Z,99371.23
2019-03-23T12:51:12.764Z,99368.30
2019-03-23T12:53:42.115Z,99375.27
2019-03-23T12:56:11.575Z,99372.28
2019-03-23T12:58:40.454Z,99365.80
2019-03-23T13:01:09.293Z,99370.15
2019-03-23T13:03:38.184Z,99365.84
2019-03-23T13:06:07.036Z,99365.63
2019-03-23T13:08:35.886Z,99357.20
2019-03-23T13:11:04.888Z,99352.52
2019-03-23T13:13:34.158Z,99356.70
2019-03-23T13:16:02.986Z,99354.14
2019-03-23T13:18:31.913Z,99349.34
2019-03-23T13:21:03.145Z,99347.89
2019-03-23T13:23:34.089Z,99339.96
2019-03-23T13:26:02.903Z,99339.80
2019-03-23T13:28:31.671Z,99344.25
2019-03-23T13:31:01.962Z,99344.19
2019-03-23T13:33:30.751Z,99333.48
2019-03-23T13:35:59.648Z,99333.56
2019-03-23T13:38:29.499Z,99331.02
2019-03-23T13:40:58.562Z,99332.14
2019-03-23T13:43:27.907Z,99326.03
2019-03-23T13:45:56.809Z,99331.86
2019-03-23T13:48:25.808Z,99327.86
2019-03-23T13:50:55.256Z,99325.61
2019-03-23T13:53:24.351Z,99317.91
2019-03-23T13:55:53.561Z,99321.88
2019-03-23T13:58:22.680Z,99308.75
2019-03-23T14:00:51.941Z,99310.68
2019-03-23T14:03:20.693Z,99306.75
2019-03-23T14:05:49.495Z,99304.67
2019-03-23T14:08:19.699Z,99309.61
2019-03-23T14:10:49.355Z,99305.04
2019-03-23T14:13:18.563Z,99305.92
2019-03-23T14:15:47.930Z,99293.50
2019-03-23T14:18:17.511Z,99301.30
2019-03-23T14:20:46.480Z,99309.78
2019-03-23T14:23:15.632Z,99303.89
2019-03-23T14:25:44.981Z,99296.77
2019-03-23T14:28:14.143Z,99295.03
2019-03-23T14:30:43.230Z,99293.95
2019-03-23T14:33:12.394Z,99296.41
2019-03-23T14:35:46.031Z,99295.71
2019-03-23T14:38:14.947Z,99289.52
2019-03-23T14:40:43.900Z,99288.09
2019-03-23T14:43:12.686Z,99285.13
2019-03-23T14:45:41.670Z,99291.37
2019-03-23T14:48:10.621Z,99294.47
2019-03-23T14:50:39.414Z,99289.97
2019-03-23T14:53:08.277Z,99283.50
2019-03-23T14:55:37.533Z,99286.56
2019-03-23T14:58:06.602Z,99285.92
2019-03-23T15:00:36.172Z,99289.72
2019-03-23T15:03:04.959Z,99285.30
2019-03-23T15:05:33.773Z,99282.29
2019-03-23T15:08:02.671Z,99280.53
2019-03-23T15:10:31.478Z,99277.45
2019-03-23T15:13:01.404Z,99275.45
2019-03-23T15:15:30.226Z,99289.43
2019-03-23T15:18:00.138Z,99275.90
2019-03-23T15:20:28.891Z,99273.54
2019-03-23T15:22:58.266Z,99277.30
2019-03-23T15:25:27.390Z,99271.17
2019-03-23T15:27:58.390Z,99275.95
2019-03-23T15:30:27.181Z,99268.19
2019-03-23T15:32:56.038Z,99268.94
2019-03-23T15:35:24.835Z,99275.89
2019-03-23T15:37:53.656Z,99276.05
2019-03-23T15:40:22.461Z,99272.78
2019-03-23T15:42:52.967Z,99275.23
2019-03-23T15:45:21.795Z,99277.09
2019-03-23T15:47:50.687Z,99269.78
2019-03-23T15:50:19.859Z,99273.44
2019-03-23T15:52:48.764Z,99272.39
2019-03-23T15:55:17.628Z,99270.66
2019-03-23T15:57:46.409Z,99272.44
2019-03-23T16:00:25.027Z,99272.05
2019-03-23T16:02:53.810Z,99271.36
2019-03-23T16:05:23.085Z,99270.06
2019-03-23T16:07:52.053Z,99274.78
2019-03-23T16:10:20.894Z,99272.48
2019-03-23T16:12:50.113Z,99277.60
2019-03-23T16:15:19.000Z,99271.98
2019-03-23T16:17:48.011Z,99280.77
2019-03-23T16:20:17.301Z,99277.34
2019-03-23T16:22:46.745Z,99278.30
2019-03-23T16:25:15.567Z,99278.38
2019-03-23T16:27:44.783Z,99279.38
2019-03-23T16:30:16.217Z,99280.30
2019-03-23T16:32:45.009Z,99282.87
2019-03-23T16:35:13.753Z,99287.48
2019-03-23T16:37:42.592Z,99285.70
2019-03-23T16:40:11.485Z,99281.83
2019-03-23T16:42:45.217Z,99283.50
2019-03-23T16:45:11.167Z,99280.20
2019-03-23T16:47:40.067Z,99283.17
2019-03-23T16:50:09.645Z,99280.23
2019-03-23T16:52:39.585Z,99281.36
2019-03-23T16:55:08.884Z,99290.08
2019-03-23T16:57:37.809Z,99289.90
2019-03-23T17:00:07.665Z,99296.70
2019-03-23T17:02:36.749Z,99293.96
2019-03-23T17:05:06.011Z,99283.83
2019-03-23T17:07:35.938Z,99282.45
2019-03-23T17:10:05.915Z,99288.84
2019-03-23T17:12:34.944Z,99293.69
2019-03-23T17:15:04.644Z,99293.85
2019-03-23T17:17:33.648Z,99294.77
2019-03-23T17:20:03.213Z,99296.83
2019-03-23T17:22:32.156Z,99296.15
2019-03-23T17:25:01.244Z,99304.03
2019-03-23T17:27:30.437Z,99301.50
2019-03-23T17:29:59.233Z,99297.59
2019-03-23T17:32:28.171Z,99302.41
2019-03-23T17:35:00.973Z,99304.85
2019-03-23T17:37:30.388Z,99307.60
2019-03-23T17:39:59.244Z,99316.00
2019-03-23T17:42:31.475Z,99307.20
2019-03-23T17:45:00.364Z,99319.83
2019-03-23T17:47:30.410Z,99314.63
2019-03-23T17:49:59.960Z,99312.81
2019-03-23T17:52:28.746Z,99328.73
2019-03-23T17:54:57.986Z,99323.64
2019-03-23T17:57:27.631Z,99323.91
2019-03-23T17:59:56.405Z,99326.21
2019-03-23T18:02:25.409Z,99323.25
2019-03-23T18:04:54.278Z,99329.97
2019-03-23T18:07:25.401Z,99328.49
2019-03-23T18:09:54.181Z,99327.61
2019-03-23T18:12:22.982Z,99329.52
2019-03-23T18:14:51.836Z,99333.80
2019-03-23T18:17:21.702Z,99332.16
2019-03-23T18:19:50.566Z,99332.81
2019-03-23T18:22:19.397Z,99338.37
2019-03-23T18:24:49.559Z,99342.48
2019-03-23T18:27:18.930Z,99343.88
2019-03-23T18:29:50.775Z,99338.75
2019-03-23T18:32:19.684Z,99341.14
2019-03-23T18:34:49.139Z,99345.73
2019-03-23T18:37:19.369Z,99351.69
2019-03-23T18:39:48.594Z,99343.48
2019-03-23T18:42:17.431Z,99350.39
2019-03-23T18:44:46.987Z,99350.39
2019-03-23T18:47:16.738Z,99350.63
2019-03-23T18:49:46.426Z,99348.28
2019-03-23T18:52:17.048Z,99353.22
2019-03-23T18:54:46.070Z,99356.55
2019-03-23T18:57:15.343Z,99361.60
2019-03-23T18:59:44.279Z,99355.31
2019-03-23T19:02:13.166Z,99360.65
2019-03-23T19:04:42.238Z,99358.64
2019-03-23T19:07:11.049Z,99353.58
2019-03-23T19:09:39.946Z,99354.97
2019-03-23T19:12:08.924Z,99357.50
2019-03-23T19:14:38.159Z,99353.72
2019-03-23T19:17:07.019Z,99356.62
2019-03-23T19:19:36.023Z,99356.92
2019-03-23T19:22:04.858Z,99357.42
2019-03-23T19:24:33.663Z,99353.97
2019-03-23T19:27:03.132Z,99350.55
2019-03-23T19:29:31.999Z,99351.47
2019-03-23T19:32:01.987Z,99346.55
2019-03-23T19:34:31.904Z,99347.45
2019-03-23T19:37:00.785Z,99351.13
2019-03-23T19:39:29.951Z,99356.28
2019-03-23T19:41:58.899Z,99364.95
2019-03-23T19:44:28.167Z,99365.32
2019-03-23T19:46:57.281Z,99362.33
2019-03-23T19:49:26.170Z,99366.16
2019-03-23T19:51:54.965Z,99363.94
2019-03-23T19:54:23.791Z,99371.20
2019-03-23T19:56:53.080Z,99371.45
2019-03-23T19:59:21.833Z,99366.73
2019-03-23T20:01:50.732Z,99370.80
2019-03-23T20:04:20.468Z,99378.00
2019-03-23T20:06:49.398Z,99380.50
2019-03-23T20:09:18.489Z,99374.89
2019-03-23T20:11:48.061Z,99380.77
2019-03-23T20:14:17.111Z,99375.17
2019-03-23T20:16:45.922Z,99375.63
2019-03-23T20:19:14.809Z,99376.01
2019-03-23T20:21:43.615Z,99377.73
2019-03-23T20:24:13.046Z,99377.99
2019-03-23T20:26:41.875Z,99378.56
2019-03-23T20:29:10.995Z,99376.44
2019-03-23T20:31:39.905Z,99383.55
2019-03-23T20:34:08.725Z,99380.70
2019-03-23T20:36:37.829Z,99391.85
2019-03-23T20:39:07.219Z,99398.30
2019-03-23T20:41:37.975Z,99391.39
2019-03-23T20:44:09.761Z,99395.91
2019-03-23T20:46:37.798Z,99386.59
2019-03-23T20:49:07.107Z,99387.23
2019-03-23T20:51:36.105Z,99386.03
2019-03-23T20:54:05.038Z,99383.09
2019-03-23T20:56:39.064Z,99381.50
2019-03-23T20:59:08.412Z,99390.36
2019-03-23T21:01:37.401Z,99387.97
2019-03-23T21:04:06.593Z,99383.56
2019-03-23T21:06:35.749Z,99383.55
2019-03-23T21:09:06.640Z,99385.75
2019-03-23T21:11:35.891Z,99385.48
2019-03-23T21:14:04.779Z,99389.08
2019-03-23T21:16:34.027Z,99388.96
2019-03-23T21:19:03.141Z,99396.44
2019-03-23T21:21:32.136Z,99398.64
2019-03-23T21:24:01.038Z,99400.11
2019-03-23T21:26:32.889Z,99399.86
2019-03-23T21:29:01.810Z,99399.27
2019-03-23T21:31:30.665Z,99397.79
2019-03-23T21:33:59.775Z,99396.57
2019-03-23T21:36:28.991Z,99393.63
2019-03-23T21:38:57.827Z,99390.87
2019-03-23T21:41:26.681Z,99392.61
2019-03-23T21:43:55.498Z,99383.59
2019-03-23T21:46:27.104Z,99380.71
2019-03-23T21:48:56.427Z,99372.55
2019-03-23T21:51:27.153Z,99380.96
2019-03-23T21:53:55.978Z,99385.28
2019-03-23T21:56:24.880Z,99378.61
2019-03-23T21:58:54.232Z,99377.60
2019-03-23T22:01:23.467Z,99371.41
2019-03-23T22:03:52.390Z,99375.66
2019-03-23T22:06:21.302Z,99364.94
2019-03-23T22:08:50.193Z,99361.80
2019-03-23T22:11:19.061Z,99364.84
2019-03-23T22:13:47.891Z,99361.19
2019-03-23T22:16:17.293Z,99360.63
2019-03-23T22:18:47.420Z,99362.75
2019-03-23T22:21:16.286Z,99363.59
2019-03-23T22:23:45.074Z,99363.63
2019-03-23T22:26:13.840Z,99363.41
2019-03-23T22:28:42.685Z,99359.48
2019-03-23T22:31:11.512Z,99355.06
2019-03-23T22:33:40.307Z,99350.85
2019-03-23T22:36:09.391Z,99351.75
2019-03-23T22:38:38.124Z,99352.38
2019-03-23T22:41:06.906Z,99353.95
2019-03-23T22:43:36.042Z,99350.71
2019-03-23T22:46:17.423Z,99348.38
2019-03-23T22:48:48.889Z,99343.56
2019-03-23T22:51:17.787Z,99343.72
2019-03-23T22:53:46.572Z,99337.44
2019-03-23T22:56:15.572Z,99342.09
2019-03-23T22:58:44.425Z,99338.03
2019-03-23T23:01:13.794Z,99334.92
2019-03-23T23:03:42.817Z,99332.41
2019-03-23T23:06:11.722Z,99333.03
2019-03-23T23:08:40.501Z,99325.87
2019-03-23T23:11:09.407Z,99328.39
2019-03-23T23:13:38.219Z,99324.81
2019-03-23T23:16:07.352Z,99321.89
2019-03-23T23:18:36.555Z,99319.84
2019-03-23T23:21:05.389Z,99324.48
2019-03-23T23:23:34.527Z,99319.05
2019-03-23T23:26:03.497Z,99317.98
2019-03-23T23:28:32.371Z,99318.13
2019-03-23T23:31:01.517Z,99320.05
2019-03-23T23:33:30.329Z,99305.19
2019-03-23T23:35:59.593Z,99306.59
2019-03-23T23:38:28.555Z,99313.80
2019-03-23T23:40:57.667Z,99310.72
2019-03-23T23:43:26.716Z,99310.11
2019-03-23T23:45:55.568Z,99303.56
2019-03-23T23:48:24.447Z,99307.52
2019-03-23T23:50:53.994Z,99303.33
2019-03-23T23:53:22.903Z,99303.07
2019-03-23T23:55:51.731Z,99300.83
2019-03-23T23:58:20.622Z,99304.39
